sensor_id;sensor_type;location;lat;lon;timestamp;temperature;humidity
7588;DHT22;3835;48.850;8.938;2022-12-18T00:01:12;-8.80;99.90
7588;DHT22;3835;48.850;8.938;2022-12-18T00:03:41;-8.80;99.90
7588;DHT22;3835;48.850;8.938;2022-12-18T00:06:09;-8.90;99.90
7588;DHT22;3835;48.850;8.938;2022-12-18T00:08:37;-9.00;99.90
7588;DHT22;3835;48.850;8.938;2022-12-18T00:11:10;-8.90;99.90
7588;DHT22;3835;48.850;8.938;2022-12-18T00:13:37;-8.60;99.90
7588;DHT22;3835;48.850;8.938;2022-12-18T00:16:07;-8.70;99.90
7588;DHT22;3835;48.850;8.938;2022-12-18T00:18:36;-8.80;99.90
7588;DHT22;3835;48.850;8.938;2022-12-18T00:21:06;-8.90;99.90
7588;DHT22;3835;48.850;8.938;2022-12-18T00:23:34;-8.80;99.90
7588;DHT22;3835;48.850;8.938;2022-12-18T00:26:04;-8.70;99.90
7588;DHT22;3835;48.850;8.938;2022-12-18T00:28:33;-8.50;99.90
7588;DHT22;3835;48.850;8.938;2022-12-18T00:31:02;-8.40;99.90
7588;DHT22;3835;48.850;8.938;2022-12-18T00:33:30;-8.40;99.90
7588;DHT22;3835;48.850;8.938;2022-12-18T00:36:00;-8.30;99.90
7588;DHT22;3835;48.850;8.938;2022-12-18T00:38:27;-8.30;99.90
7588;DHT22;3835;48.850;8.938;2022-12-18T00:40:54;-8.20;99.90
7588;DHT22;3835;48.850;8.938;2022-12-18T00:43:21;-8.20;99.90
7588;DHT22;3835;48.850;8.938;2022-12-18T00:45:48;-8.20;99.90
7588;DHT22;3835;48.850;8.938;2022-12-18T00:48:15;-8.30;99.90
7588;DHT22;3835;48.850;8.938;2022-12-18T00:50:41;-8.50;99.90
7588;DHT22;3835;48.850;8.938;2022-12-18T00:53:08;-8.70;99.90
7588;DHT22;3835;48.850;8.938;2022-12-18T00:55:37;-8.60;99.90
7588;DHT22;3835;48.850;8.938;2022-12-18T00:58:04;-8.50;99.90
7588;DHT22;3835;48.850;8.938;2022-12-18T01:00:30;-8.50;99.90
7588;DHT22;3835;48.850;8.938;2022-12-18T01:02:59;-8.30;99.90
7588;DHT22;3835;48.850;8.938;2022-12-18T01:05:26;-8.30;99.90
7588;DHT22;3835;48.850;8.938;2022-12-18T01:07:53;-8.40;99.90
7588;DHT22;3835;48.850;8.938;2022-12-18T01:10:20;-8.50;99.90
7588;DHT22;3835;48.850;8.938;2022-12-18T01:12:46;-8.80;99.90
7588;DHT22;3835;48.850;8.938;2022-12-18T01:15:14;-8.80;99.90
7588;DHT22;3835;48.850;8.938;2022-12-18T01:17:41;-8.70;99.90
7588;DHT22;3835;48.850;8.938;2022-12-18T01:20:11;-8.60;99.90
7588;DHT22;3835;48.850;8.938;2022-12-18T01:22:39;-8.60;99.90
7588;DHT22;3835;48.850;8.938;2022-12-18T01:25:06;-8.40;99.90
7588;DHT22;3835;48.850;8.938;2022-12-18T01:27:34;-8.40;99.90
7588;DHT22;3835;48.850;8.938;2022-12-18T01:30:00;-8.60;99.90
7588;DHT22;3835;48.850;8.938;2022-12-18T01:32:29;-8.70;99.90
7588;DHT22;3835;48.850;8.938;2022-12-18T01:34:56;-8.70;99.90
7588;DHT22;3835;48.850;8.938;2022-12-18T01:37:24;-8.70;99.90
7588;DHT22;3835;48.850;8.938;2022-12-18T01:39:52;-8.70;99.90
7588;DHT22;3835;48.850;8.938;2022-12-18T01:42:20;-8.70;99.90
7588;DHT22;3835;48.850;8.938;2022-12-18T01:44:56;-8.70;99.90
7588;DHT22;3835;48.850;8.938;2022-12-18T01:47:26;-8.60;99.90
7588;DHT22;3835;48.850;8.938;2022-12-18T01:49:55;-8.70;99.90
7588;DHT22;3835;48.850;8.938;2022-12-18T01:52:25;-8.70;99.90
7588;DHT22;3835;48.850;8.938;2022-12-18T01:54:53;-8.80;99.90
7588;DHT22;3835;48.850;8.938;2022-12-18T01:57:22;-9.10;99.90
7588;DHT22;3835;48.850;8.938;2022-12-18T01:59:52;-9.40;99.90
7588;DHT22;3835;48.850;8.938;2022-12-18T02:02:19;-9.30;99.90
7588;DHT22;3835;48.850;8.938;2022-12-18T02:04:46;-9.30;99.90
7588;DHT22;3835;48.850;8.938;2022-12-18T02:07:19;-9.10;99.90
7588;DHT22;3835;48.850;8.938;2022-12-18T02:09:54;-8.90;99.90
7588;DHT22;3835;48.850;8.938;2022-12-18T02:12:24;-8.90;99.90
7588;DHT22;3835;48.850;8.938;2022-12-18T02:14:57;-8.80;99.90
7588;DHT22;3835;48.850;8.938;2022-12-18T02:17:28;-8.80;99.90
7588;DHT22;3835;48.850;8.938;2022-12-18T02:20:06;-8.70;99.90
7588;DHT22;3835;48.850;8.938;2022-12-18T02:22:39;-8.60;99.90
7588;DHT22;3835;48.850;8.938;2022-12-18T02:25:24;-8.60;99.90
7588;DHT22;3835;48.850;8.938;2022-12-18T02:27:54;-8.60;99.90
7588;DHT22;3835;48.850;8.938;2022-12-18T02:30:25;-8.60;99.90
7588;DHT22;3835;48.850;8.938;2022-12-18T02:32:53;-8.60;99.90
7588;DHT22;3835;48.850;8.938;2022-12-18T02:35:23;-8.70;99.90
7588;DHT22;3835;48.850;8.938;2022-12-18T02:37:54;-8.70;99.90
7588;DHT22;3835;48.850;8.938;2022-12-18T02:40:24;-8.70;99.90
7588;DHT22;3835;48.850;8.938;2022-12-18T02:42:52;-8.60;99.90
7588;DHT22;3835;48.850;8.938;2022-12-18T02:45:19;-8.50;99.90
7588;DHT22;3835;48.850;8.938;2022-12-18T02:47:48;-8.50;99.90
7588;DHT22;3835;48.850;8.938;2022-12-18T02:50:19;-8.50;99.90
7588;DHT22;3835;48.850;8.938;2022-12-18T02:52:56;-8.50;99.90
7588;DHT22;3835;48.850;8.938;2022-12-18T02:55:34;-8.50;99.90
7588;DHT22;3835;48.850;8.938;2022-12-18T02:58:09;-8.50;99.90
7588;DHT22;3835;48.850;8.938;2022-12-18T03:00:42;-8.60;99.90
7588;DHT22;3835;48.850;8.938;2022-12-18T03:03:14;-8.60;99.90
7588;DHT22;3835;48.850;8.938;2022-12-18T03:05:47;-8.60;99.90
7588;DHT22;3835;48.850;8.938;2022-12-18T03:08:20;-8.60;99.90
7588;DHT22;3835;48.850;8.938;2022-12-18T03:10:51;-8.50;99.90
7588;DHT22;3835;48.850;8.938;2022-12-18T03:13:25;-8.60;99.90
7588;DHT22;3835;48.850;8.938;2022-12-18T03:15:55;-8.60;99.90
7588;DHT22;3835;48.850;8.938;2022-12-18T03:18:26;-8.60;99.90
7588;DHT22;3835;48.850;8.938;2022-12-18T03:20:59;-8.60;99.90
7588;DHT22;3835;48.850;8.938;2022-12-18T03:23:29;-8.70;99.90
7588;DHT22;3835;48.850;8.938;2022-12-18T03:26:00;-8.80;99.90
7588;DHT22;3835;48.850;8.938;2022-12-18T03:28:30;-8.90;99.90
7588;DHT22;3835;48.850;8.938;2022-12-18T03:31:00;-8.90;99.90
7588;DHT22;3835;48.850;8.938;2022-12-18T03:33:30;-9.00;99.90
7588;DHT22;3835;48.850;8.938;2022-12-18T03:36:01;-9.00;99.90
7588;DHT22;3835;48.850;8.938;2022-12-18T03:38:28;-9.10;99.90
7588;DHT22;3835;48.850;8.938;2022-12-18T03:41:00;-9.10;99.90
7588;DHT22;3835;48.850;8.938;2022-12-18T03:43:36;-9.10;99.90
7588;DHT22;3835;48.850;8.938;2022-12-18T03:46:09;-9.20;99.90
7588;DHT22;3835;48.850;8.938;2022-12-18T03:48:43;-9.20;99.90
7588;DHT22;3835;48.850;8.938;2022-12-18T03:51:16;-9.20;99.90
7588;DHT22;3835;48.850;8.938;2022-12-18T03:53:48;-9.30;99.90
7588;DHT22;3835;48.850;8.938;2022-12-18T03:56:17;-9.40;99.90
7588;DHT22;3835;48.850;8.938;2022-12-18T03:58:46;-9.50;99.90
7588;DHT22;3835;48.850;8.938;2022-12-18T04:01:16;-9.50;99.90
7588;DHT22;3835;48.850;8.938;2022-12-18T04:03:44;-9.50;99.90
7588;DHT22;3835;48.850;8.938;2022-12-18T04:06:13;-9.60;99.90
7588;DHT22;3835;48.850;8.938;2022-12-18T04:08:41;-9.60;99.90
7588;DHT22;3835;48.850;8.938;2022-12-18T04:11:08;-9.70;99.90
7588;DHT22;3835;48.850;8.938;2022-12-18T04:13:36;-9.70;99.90
7588;DHT22;3835;48.850;8.938;2022-12-18T04:16:05;-9.80;99.90
7588;DHT22;3835;48.850;8.938;2022-12-18T04:18:32;-9.80;99.90
7588;DHT22;3835;48.850;8.938;2022-12-18T04:20:59;-9.80;99.90
7588;DHT22;3835;48.850;8.938;2022-12-18T04:23:25;-9.90;99.90
7588;DHT22;3835;48.850;8.938;2022-12-18T04:25:52;-9.90;99.90
7588;DHT22;3835;48.850;8.938;2022-12-18T04:28:19;-9.90;99.90
7588;DHT22;3835;48.850;8.938;2022-12-18T04:30:46;-9.90;99.90
7588;DHT22;3835;48.850;8.938;2022-12-18T04:33:14;-9.90;99.90
7588;DHT22;3835;48.850;8.938;2022-12-18T04:35:41;-9.90;99.90
7588;DHT22;3835;48.850;8.938;2022-12-18T04:38:08;-10.00;99.90
7588;DHT22;3835;48.850;8.938;2022-12-18T04:40:36;-9.90;99.90
7588;DHT22;3835;48.850;8.938;2022-12-18T04:43:03;-9.90;99.90
7588;DHT22;3835;48.850;8.938;2022-12-18T04:45:30;-9.80;99.90
7588;DHT22;3835;48.850;8.938;2022-12-18T04:47:57;-9.80;99.90
7588;DHT22;3835;48.850;8.938;2022-12-18T04:50:25;-9.80;99.90
7588;DHT22;3835;48.850;8.938;2022-12-18T04:52:52;-9.80;99.90
7588;DHT22;3835;48.850;8.938;2022-12-18T04:55:19;-9.80;99.90
7588;DHT22;3835;48.850;8.938;2022-12-18T04:57:46;-9.80;99.90
7588;DHT22;3835;48.850;8.938;2022-12-18T05:00:13;-9.80;99.90
7588;DHT22;3835;48.850;8.938;2022-12-18T05:02:40;-9.90;99.90
7588;DHT22;3835;48.850;8.938;2022-12-18T05:05:07;-9.80;99.90
7588;DHT22;3835;48.850;8.938;2022-12-18T05:07:36;-9.80;99.90
7588;DHT22;3835;48.850;8.938;2022-12-18T05:10:07;-9.80;99.90
7588;DHT22;3835;48.850;8.938;2022-12-18T05:12:33;-9.80;99.90
7588;DHT22;3835;48.850;8.938;2022-12-18T05:15:20;-9.80;99.90
7588;DHT22;3835;48.850;8.938;2022-12-18T05:17:47;-9.90;99.90
7588;DHT22;3835;48.850;8.938;2022-12-18T05:20:14;-9.90;99.90
7588;DHT22;3835;48.850;8.938;2022-12-18T05:22:42;-9.90;99.90
7588;DHT22;3835;48.850;8.938;2022-12-18T05:25:08;-9.90;99.90
7588;DHT22;3835;48.850;8.938;2022-12-18T05:27:35;-9.80;99.90
7588;DHT22;3835;48.850;8.938;2022-12-18T05:30:03;-9.80;99.90
7588;DHT22;3835;48.850;8.938;2022-12-18T05:32:29;-9.80;99.90
7588;DHT22;3835;48.850;8.938;2022-12-18T05:34:56;-9.80;99.90
7588;DHT22;3835;48.850;8.938;2022-12-18T05:37:23;-9.70;99.90
7588;DHT22;3835;48.850;8.938;2022-12-18T05:39:51;-9.80;99.90
7588;DHT22;3835;48.850;8.938;2022-12-18T05:42:18;-9.70;99.90
7588;DHT22;3835;48.850;8.938;2022-12-18T05:44:45;-9.70;99.90
7588;DHT22;3835;48.850;8.938;2022-12-18T05:47:11;-9.60;99.90
7588;DHT22;3835;48.850;8.938;2022-12-18T05:49:38;-9.60;99.90
7588;DHT22;3835;48.850;8.938;2022-12-18T05:52:05;-9.60;99.90
7588;DHT22;3835;48.850;8.938;2022-12-18T05:54:32;-9.60;99.90
7588;DHT22;3835;48.850;8.938;2022-12-18T05:57:00;-9.50;99.90
7588;DHT22;3835;48.850;8.938;2022-12-18T05:59:27;-9.30;99.90
7588;DHT22;3835;48.850;8.938;2022-12-18T06:01:53;-9.20;99.90
7588;DHT22;3835;48.850;8.938;2022-12-18T06:04:20;-9.10;99.90
7588;DHT22;3835;48.850;8.938;2022-12-18T06:06:47;-9.00;99.90
7588;DHT22;3835;48.850;8.938;2022-12-18T06:09:14;-9.00;99.90
7588;DHT22;3835;48.850;8.938;2022-12-18T06:11:40;-8.90;99.90
7588;DHT22;3835;48.850;8.938;2022-12-18T06:14:09;-8.90;99.90
7588;DHT22;3835;48.850;8.938;2022-12-18T06:16:36;-8.70;99.90
7588;DHT22;3835;48.850;8.938;2022-12-18T06:19:05;-8.70;99.90
7588;DHT22;3835;48.850;8.938;2022-12-18T06:21:32;-8.70;99.90
7588;DHT22;3835;48.850;8.938;2022-12-18T06:24:02;-8.60;99.90
7588;DHT22;3835;48.850;8.938;2022-12-18T06:26:29;-8.50;99.90
7588;DHT22;3835;48.850;8.938;2022-12-18T06:28:56;-8.50;99.90
7588;DHT22;3835;48.850;8.938;2022-12-18T06:31:24;-8.60;99.90
7588;DHT22;3835;48.850;8.938;2022-12-18T06:33:51;-8.50;99.90
7588;DHT22;3835;48.850;8.938;2022-12-18T06:36:18;-8.60;99.90
7588;DHT22;3835;48.850;8.938;2022-12-18T06:38:46;-8.60;99.90
7588;DHT22;3835;48.850;8.938;2022-12-18T06:41:14;-8.70;99.90
7588;DHT22;3835;48.850;8.938;2022-12-18T06:43:42;-8.70;99.90
7588;DHT22;3835;48.850;8.938;2022-12-18T06:46:09;-8.80;99.90
7588;DHT22;3835;48.850;8.938;2022-12-18T06:48:38;-8.80;99.90
7588;DHT22;3835;48.850;8.938;2022-12-18T06:51:05;-8.90;99.90
7588;DHT22;3835;48.850;8.938;2022-12-18T06:53:32;-8.90;99.90
7588;DHT22;3835;48.850;8.938;2022-12-18T06:56:00;-8.90;99.90
7588;DHT22;3835;48.850;8.938;2022-12-18T06:58:27;-8.80;99.90
7588;DHT22;3835;48.850;8.938;2022-12-18T07:00:59;-8.80;99.90
7588;DHT22;3835;48.850;8.938;2022-12-18T07:03:27;-8.80;99.90
7588;DHT22;3835;48.850;8.938;2022-12-18T07:05:56;-8.80;99.90
7588;DHT22;3835;48.850;8.938;2022-12-18T07:08:22;-8.80;99.90
7588;DHT22;3835;48.850;8.938;2022-12-18T07:10:49;-8.90;99.90
7588;DHT22;3835;48.850;8.938;2022-12-18T07:13:16;-8.90;99.90
7588;DHT22;3835;48.850;8.938;2022-12-18T07:15:43;-8.80;99.90
7588;DHT22;3835;48.850;8.938;2022-12-18T07:18:10;-8.70;99.90
7588;DHT22;3835;48.850;8.938;2022-12-18T07:20:37;-8.60;99.90
7588;DHT22;3835;48.850;8.938;2022-12-18T07:23:05;-8.60;99.90
7588;DHT22;3835;48.850;8.938;2022-12-18T07:25:33;-8.60;99.90
7588;DHT22;3835;48.850;8.938;2022-12-18T07:28:00;-8.60;99.90
7588;DHT22;3835;48.850;8.938;2022-12-18T07:30:27;-8.50;99.90
7588;DHT22;3835;48.850;8.938;2022-12-18T07:32:55;-8.50;99.90
7588;DHT22;3835;48.850;8.938;2022-12-18T07:35:22;-8.40;99.90
7588;DHT22;3835;48.850;8.938;2022-12-18T07:37:49;-8.40;99.90
7588;DHT22;3835;48.850;8.938;2022-12-18T07:40:17;-8.30;99.90
7588;DHT22;3835;48.850;8.938;2022-12-18T07:42:44;-8.20;99.90
7588;DHT22;3835;48.850;8.938;2022-12-18T07:45:10;-8.20;99.90
7588;DHT22;3835;48.850;8.938;2022-12-18T07:47:37;-8.10;99.90
7588;DHT22;3835;48.850;8.938;2022-12-18T07:50:07;-8.10;99.90
7588;DHT22;3835;48.850;8.938;2022-12-18T07:52:34;-8.10;99.90
7588;DHT22;3835;48.850;8.938;2022-12-18T07:55:01;-8.10;99.90
7588;DHT22;3835;48.850;8.938;2022-12-18T07:57:30;-8.00;99.90
7588;DHT22;3835;48.850;8.938;2022-12-18T07:59:56;-8.00;99.90
7588;DHT22;3835;48.850;8.938;2022-12-18T08:02:23;-7.90;99.90
7588;DHT22;3835;48.850;8.938;2022-12-18T08:04:50;-7.90;99.90
7588;DHT22;3835;48.850;8.938;2022-12-18T08:07:17;-7.80;99.90
7588;DHT22;3835;48.850;8.938;2022-12-18T08:09:43;-7.70;99.90
7588;DHT22;3835;48.850;8.938;2022-12-18T08:12:11;-7.60;99.90
7588;DHT22;3835;48.850;8.938;2022-12-18T08:14:39;-7.50;99.90
7588;DHT22;3835;48.850;8.938;2022-12-18T08:17:06;-7.50;99.90
7588;DHT22;3835;48.850;8.938;2022-12-18T08:19:32;-7.50;99.90
7588;DHT22;3835;48.850;8.938;2022-12-18T08:21:59;-7.40;99.90
7588;DHT22;3835;48.850;8.938;2022-12-18T08:24:26;-7.30;99.90
7588;DHT22;3835;48.850;8.938;2022-12-18T08:26:53;-7.20;99.90
7588;DHT22;3835;48.850;8.938;2022-12-18T08:29:20;-7.20;99.90
7588;DHT22;3835;48.850;8.938;2022-12-18T08:31:48;-7.10;99.90
7588;DHT22;3835;48.850;8.938;2022-12-18T08:34:15;-7.00;99.90
7588;DHT22;3835;48.850;8.938;2022-12-18T08:36:41;-7.00;99.90
7588;DHT22;3835;48.850;8.938;2022-12-18T08:39:08;-6.90;99.90
7588;DHT22;3835;48.850;8.938;2022-12-18T08:41:35;-6.80;99.90
7588;DHT22;3835;48.850;8.938;2022-12-18T08:44:02;-6.80;99.90
7588;DHT22;3835;48.850;8.938;2022-12-18T08:46:47;-6.70;99.90
7588;DHT22;3835;48.850;8.938;2022-12-18T08:49:14;-6.60;99.90
7588;DHT22;3835;48.850;8.938;2022-12-18T08:51:41;-6.50;99.90
7588;DHT22;3835;48.850;8.938;2022-12-18T08:54:11;-6.50;99.90
7588;DHT22;3835;48.850;8.938;2022-12-18T08:56:38;-6.40;99.90
7588;DHT22;3835;48.850;8.938;2022-12-18T08:59:05;-6.40;99.90
7588;DHT22;3835;48.850;8.938;2022-12-18T09:01:31;-6.20;99.90
7588;DHT22;3835;48.850;8.938;2022-12-18T09:04:00;-6.20;99.90
7588;DHT22;3835;48.850;8.938;2022-12-18T09:06:26;-6.10;99.90
7588;DHT22;3835;48.850;8.938;2022-12-18T09:08:53;-5.90;99.90
7588;DHT22;3835;48.850;8.938;2022-12-18T09:11:22;-5.90;99.90
7588;DHT22;3835;48.850;8.938;2022-12-18T09:13:50;-5.90;99.90
7588;DHT22;3835;48.850;8.938;2022-12-18T09:16:17;-5.90;99.90
7588;DHT22;3835;48.850;8.938;2022-12-18T09:18:45;-5.80;99.90
7588;DHT22;3835;48.850;8.938;2022-12-18T09:21:15;-5.70;99.90
7588;DHT22;3835;48.850;8.938;2022-12-18T09:23:42;-5.60;99.90
7588;DHT22;3835;48.850;8.938;2022-12-18T09:26:09;-5.40;99.90
7588;DHT22;3835;48.850;8.938;2022-12-18T09:28:36;-5.40;99.90
7588;DHT22;3835;48.850;8.938;2022-12-18T09:31:07;-5.40;99.90
7588;DHT22;3835;48.850;8.938;2022-12-18T09:33:34;-5.40;99.90
7588;DHT22;3835;48.850;8.938;2022-12-18T09:36:02;-5.40;99.90
7588;DHT22;3835;48.850;8.938;2022-12-18T09:38:31;-5.30;99.90
7588;DHT22;3835;48.850;8.938;2022-12-18T09:41:00;-5.30;99.90
7588;DHT22;3835;48.850;8.938;2022-12-18T09:43:33;-5.30;99.90
7588;DHT22;3835;48.850;8.938;2022-12-18T09:46:05;-5.20;99.90
7588;DHT22;3835;48.850;8.938;2022-12-18T09:48:36;-5.30;99.90
7588;DHT22;3835;48.850;8.938;2022-12-18T09:51:11;-5.20;99.90
7588;DHT22;3835;48.850;8.938;2022-12-18T09:53:43;-5.00;99.90
7588;DHT22;3835;48.850;8.938;2022-12-18T09:56:14;-4.90;99.90
7588;DHT22;3835;48.850;8.938;2022-12-18T09:58:46;-4.90;99.90
7588;DHT22;3835;48.850;8.938;2022-12-18T10:01:17;-4.60;99.90
7588;DHT22;3835;48.850;8.938;2022-12-18T10:03:45;-4.70;99.90
7588;DHT22;3835;48.850;8.938;2022-12-18T10:06:15;-4.60;99.90
7588;DHT22;3835;48.850;8.938;2022-12-18T10:08:49;-4.50;99.90
7588;DHT22;3835;48.850;8.938;2022-12-18T10:11:32;-4.30;99.90
7588;DHT22;3835;48.850;8.938;2022-12-18T10:14:07;-4.40;99.90
7588;DHT22;3835;48.850;8.938;2022-12-18T10:16:43;-4.20;99.90
7588;DHT22;3835;48.850;8.938;2022-12-18T10:19:33;-4.10;99.90
7588;DHT22;3835;48.850;8.938;2022-12-18T10:22:09;-4.10;99.90
7588;DHT22;3835;48.850;8.938;2022-12-18T10:24:44;-4.10;99.90
7588;DHT22;3835;48.850;8.938;2022-12-18T10:27:15;-3.90;99.90
7588;DHT22;3835;48.850;8.938;2022-12-18T10:29:42;-3.90;99.90
7588;DHT22;3835;48.850;8.938;2022-12-18T10:32:14;-4.00;99.90
7588;DHT22;3835;48.850;8.938;2022-12-18T10:34:45;-3.80;99.90
7588;DHT22;3835;48.850;8.938;2022-12-18T10:37:16;-3.80;99.90
7588;DHT22;3835;48.850;8.938;2022-12-18T10:39:45;-3.70;99.90
7588;DHT22;3835;48.850;8.938;2022-12-18T10:42:18;-3.80;99.90
7588;DHT22;3835;48.850;8.938;2022-12-18T10:44:45;-3.80;99.90
7588;DHT22;3835;48.850;8.938;2022-12-18T10:47:15;-3.70;99.90
7588;DHT22;3835;48.850;8.938;2022-12-18T10:49:49;-3.60;99.90
7588;DHT22;3835;48.850;8.938;2022-12-18T10:52:18;-3.50;99.90
7588;DHT22;3835;48.850;8.938;2022-12-18T10:54:50;-3.40;99.90
7588;DHT22;3835;48.850;8.938;2022-12-18T10:57:31;-3.40;99.90
7588;DHT22;3835;48.850;8.938;2022-12-18T11:02:43;-3.20;99.90
7588;DHT22;3835;48.850;8.938;2022-12-18T11:05:25;-3.20;99.90
7588;DHT22;3835;48.850;8.938;2022-12-18T11:07:53;-3.00;99.90
7588;DHT22;3835;48.850;8.938;2022-12-18T11:10:23;-3.10;99.90
7588;DHT22;3835;48.850;8.938;2022-12-18T11:12:52;-3.00;99.90
7588;DHT22;3835;48.850;8.938;2022-12-18T11:15:23;-2.90;99.90
7588;DHT22;3835;48.850;8.938;2022-12-18T11:17:52;-2.90;99.90
7588;DHT22;3835;48.850;8.938;2022-12-18T11:20:24;-2.60;99.90
7588;DHT22;3835;48.850;8.938;2022-12-18T11:22:58;-2.30;99.90
7588;DHT22;3835;48.850;8.938;2022-12-18T11:25:32;-2.30;99.90
7588;DHT22;3835;48.850;8.938;2022-12-18T11:28:01;-2.20;99.90
7588;DHT22;3835;48.850;8.938;2022-12-18T11:30:30;-2.40;99.90
7588;DHT22;3835;48.850;8.938;2022-12-18T11:33:02;-2.40;99.90
7588;DHT22;3835;48.850;8.938;2022-12-18T11:35:44;-2.50;99.90
7588;DHT22;3835;48.850;8.938;2022-12-18T11:38:21;-2.40;99.90
7588;DHT22;3835;48.850;8.938;2022-12-18T11:40:56;-2.40;99.90
7588;DHT22;3835;48.850;8.938;2022-12-18T11:43:28;-2.50;99.90
7588;DHT22;3835;48.850;8.938;2022-12-18T11:46:03;-2.40;99.90
7588;DHT22;3835;48.850;8.938;2022-12-18T11:48:34;-2.30;99.90
7588;DHT22;3835;48.850;8.938;2022-12-18T11:51:08;-2.30;99.90
7588;DHT22;3835;48.850;8.938;2022-12-18T11:53:38;-2.40;99.90
7588;DHT22;3835;48.850;8.938;2022-12-18T11:56:22;-2.30;99.90
7588;DHT22;3835;48.850;8.938;2022-12-18T11:59:00;-2.20;99.90
7588;DHT22;3835;48.850;8.938;2022-12-18T12:01:38;-2.20;99.90
7588;DHT22;3835;48.850;8.938;2022-12-18T12:04:27;-2.20;99.90
7588;DHT22;3835;48.850;8.938;2022-12-18T12:07:06;-2.30;99.90
7588;DHT22;3835;48.850;8.938;2022-12-18T12:09:45;-2.20;99.90
7588;DHT22;3835;48.850;8.938;2022-12-18T12:12:29;-2.00;99.90
7588;DHT22;3835;48.850;8.938;2022-12-18T12:15:20;-2.00;99.90
7588;DHT22;3835;48.850;8.938;2022-12-18T12:17:53;-2.20;99.90
7588;DHT22;3835;48.850;8.938;2022-12-18T12:20:29;-2.10;99.90
7588;DHT22;3835;48.850;8.938;2022-12-18T12:23:03;-2.10;99.90
7588;DHT22;3835;48.850;8.938;2022-12-18T12:25:39;-2.10;99.90
7588;DHT22;3835;48.850;8.938;2022-12-18T12:28:18;-1.70;99.90
7588;DHT22;3835;48.850;8.938;2022-12-18T12:30:55;-0.90;99.90
7588;DHT22;3835;48.850;8.938;2022-12-18T12:33:35;-0.30;99.90
7588;DHT22;3835;48.850;8.938;2022-12-18T12:36:10;0.70;99.90
7588;DHT22;3835;48.850;8.938;2022-12-18T12:38:41;0.90;99.90
7588;DHT22;3835;48.850;8.938;2022-12-18T12:41:14;0.30;99.90
7588;DHT22;3835;48.850;8.938;2022-12-18T12:44:01;0.60;99.90
7588;DHT22;3835;48.850;8.938;2022-12-18T12:46:31;0.60;99.90
7588;DHT22;3835;48.850;8.938;2022-12-18T12:49:00;0.30;99.90
7588;DHT22;3835;48.850;8.938;2022-12-18T12:51:32;0.20;99.90
7588;DHT22;3835;48.850;8.938;2022-12-18T12:54:03;-0.30;99.90
7588;DHT22;3835;48.850;8.938;2022-12-18T12:56:38;-0.60;99.90
7588;DHT22;3835;48.850;8.938;2022-12-18T12:59:17;-0.60;99.90
7588;DHT22;3835;48.850;8.938;2022-12-18T13:01:52;-1.00;99.90
7588;DHT22;3835;48.850;8.938;2022-12-18T13:04:28;-1.20;99.90
7588;DHT22;3835;48.850;8.938;2022-12-18T13:07:03;-1.60;99.90
7588;DHT22;3835;48.850;8.938;2022-12-18T13:09:34;-2.00;99.90
7588;DHT22;3835;48.850;8.938;2022-12-18T13:12:22;-2.30;99.90
7588;DHT22;3835;48.850;8.938;2022-12-18T13:15:22;-2.30;99.90
7588;DHT22;3835;48.850;8.938;2022-12-18T13:18:04;-2.30;99.90
7588;DHT22;3835;48.850;8.938;2022-12-18T13:20:34;-2.40;99.90
7588;DHT22;3835;48.850;8.938;2022-12-18T13:23:29;-2.40;99.90
7588;DHT22;3835;48.850;8.938;2022-12-18T13:25:58;-2.20;99.90
7588;DHT22;3835;48.850;8.938;2022-12-18T13:28:50;-2.10;99.90
7588;DHT22;3835;48.850;8.938;2022-12-18T13:34:36;-2.30;99.90
7588;DHT22;3835;48.850;8.938;2022-12-18T13:37:45;-2.30;99.90
7588;DHT22;3835;48.850;8.938;2022-12-18T13:40:55;-2.50;99.90
7588;DHT22;3835;48.850;8.938;2022-12-18T13:43:29;-2.60;99.90
7588;DHT22;3835;48.850;8.938;2022-12-18T13:46:05;-2.60;99.90
7588;DHT22;3835;48.850;8.938;2022-12-18T13:48:35;-2.40;99.90
7588;DHT22;3835;48.850;8.938;2022-12-18T13:51:06;-2.50;99.90
7588;DHT22;3835;48.850;8.938;2022-12-18T13:53:39;-2.50;99.90
7588;DHT22;3835;48.850;8.938;2022-12-18T13:56:15;-2.40;99.90
7588;DHT22;3835;48.850;8.938;2022-12-18T13:58:47;-2.30;99.90
7588;DHT22;3835;48.850;8.938;2022-12-18T14:01:31;-2.30;99.90
7588;DHT22;3835;48.850;8.938;2022-12-18T14:04:09;-2.30;99.90
7588;DHT22;3835;48.850;8.938;2022-12-18T14:06:38;-2.20;99.90
7588;DHT22;3835;48.850;8.938;2022-12-18T14:09:05;-2.30;99.90
7588;DHT22;3835;48.850;8.938;2022-12-18T14:11:32;-2.40;99.90
7588;DHT22;3835;48.850;8.938;2022-12-18T14:13:59;-2.40;99.90
7588;DHT22;3835;48.850;8.938;2022-12-18T14:16:27;-2.30;99.90
7588;DHT22;3835;48.850;8.938;2022-12-18T14:18:56;-2.30;99.90
7588;DHT22;3835;48.850;8.938;2022-12-18T14:21:25;-2.30;99.90
7588;DHT22;3835;48.850;8.938;2022-12-18T14:24:14;-2.40;99.90
7588;DHT22;3835;48.850;8.938;2022-12-18T14:26:42;-2.40;99.90
7588;DHT22;3835;48.850;8.938;2022-12-18T14:29:23;-2.50;99.90
7588;DHT22;3835;48.850;8.938;2022-12-18T14:32:11;-2.60;99.90
7588;DHT22;3835;48.850;8.938;2022-12-18T14:34:40;-2.60;99.90
7588;DHT22;3835;48.850;8.938;2022-12-18T14:37:10;-2.60;99.90
7588;DHT22;3835;48.850;8.938;2022-12-18T14:39:39;-2.70;99.90
7588;DHT22;3835;48.850;8.938;2022-12-18T14:42:10;-2.70;99.90
7588;DHT22;3835;48.850;8.938;2022-12-18T14:44:37;-2.80;99.90
7588;DHT22;3835;48.850;8.938;2022-12-18T14:47:12;-2.90;99.90
7588;DHT22;3835;48.850;8.938;2022-12-18T14:49:42;-3.00;99.90
7588;DHT22;3835;48.850;8.938;2022-12-18T14:52:22;-3.00;99.90
7588;DHT22;3835;48.850;8.938;2022-12-18T14:54:53;-3.10;99.90
7588;DHT22;3835;48.850;8.938;2022-12-18T14:57:24;-3.20;99.90
7588;DHT22;3835;48.850;8.938;2022-12-18T14:59:53;-3.40;99.90
7588;DHT22;3835;48.850;8.938;2022-12-18T15:02:22;-3.40;99.90
7588;DHT22;3835;48.850;8.938;2022-12-18T15:05:01;-3.50;99.90
7588;DHT22;3835;48.850;8.938;2022-12-18T15:07:40;-3.50;99.90
7588;DHT22;3835;48.850;8.938;2022-12-18T15:10:14;-3.50;99.90
7588;DHT22;3835;48.850;8.938;2022-12-18T15:12:43;-3.50;99.90
7588;DHT22;3835;48.850;8.938;2022-12-18T15:18:32;-3.60;99.90
7588;DHT22;3835;48.850;8.938;2022-12-18T15:21:09;-3.70;99.90
7588;DHT22;3835;48.850;8.938;2022-12-18T15:23:46;-3.70;99.90
7588;DHT22;3835;48.850;8.938;2022-12-18T15:26:17;-3.80;99.90
7588;DHT22;3835;48.850;8.938;2022-12-18T15:28:47;-3.80;99.90
7588;DHT22;3835;48.850;8.938;2022-12-18T15:31:29;-3.80;99.90
7588;DHT22;3835;48.850;8.938;2022-12-18T15:34:12;-3.90;99.90
7588;DHT22;3835;48.850;8.938;2022-12-18T15:36:39;-3.80;99.90
7588;DHT22;3835;48.850;8.938;2022-12-18T15:39:10;1.20;99.90
7588;DHT22;3835;48.850;8.938;2022-12-18T15:41:40;3.60;99.90
7588;DHT22;3835;48.850;8.938;2022-12-18T15:44:28;2.30;99.90
7588;DHT22;3835;48.850;8.938;2022-12-18T15:46:58;1.80;99.90
7588;DHT22;3835;48.850;8.938;2022-12-18T15:49:27;2.20;99.90
7588;DHT22;3835;48.850;8.938;2022-12-18T15:51:57;3.20;99.90
7588;DHT22;3835;48.850;8.938;2022-12-18T15:54:25;3.60;99.90
7588;DHT22;3835;48.850;8.938;2022-12-18T15:57:12;3.50;99.90
7588;DHT22;3835;48.850;8.938;2022-12-18T15:59:52;2.80;99.90
7588;DHT22;3835;48.850;8.938;2022-12-18T16:02:20;0.30;99.90
7588;DHT22;3835;48.850;8.938;2022-12-18T16:04:49;-1.10;99.90
7588;DHT22;3835;48.850;8.938;2022-12-18T16:07:16;-2.00;99.90
7588;DHT22;3835;48.850;8.938;2022-12-18T16:09:43;-2.60;99.90
7588;DHT22;3835;48.850;8.938;2022-12-18T16:12:16;-3.00;99.90
7588;DHT22;3835;48.850;8.938;2022-12-18T16:14:43;-3.30;99.90
7588;DHT22;3835;48.850;8.938;2022-12-18T16:17:11;-3.50;99.90
7588;DHT22;3835;48.850;8.938;2022-12-18T16:19:39;-3.60;99.90
7588;DHT22;3835;48.850;8.938;2022-12-18T16:22:19;-3.70;99.90
7588;DHT22;3835;48.850;8.938;2022-12-18T16:24:49;-3.70;99.90
7588;DHT22;3835;48.850;8.938;2022-12-18T16:27:18;-3.90;99.90
7588;DHT22;3835;48.850;8.938;2022-12-18T16:29:47;-3.90;99.90
7588;DHT22;3835;48.850;8.938;2022-12-18T16:32:16;-4.00;99.90
7588;DHT22;3835;48.850;8.938;2022-12-18T16:34:44;-4.00;99.90